sensor_id;sensor_type;location;lat;lon;timestamp;P1;durP1;ratioP1;P2;durP2;ratioP2
14001;SDS011;7076;51.280;12.584;2023-12-07T00:01:37;9.20;;;6.70;;
14001;SDS011;7076;51.280;12.584;2023-12-07T00:06:40;8.33;;;6.53;;
14001;SDS011;7076;51.280;12.584;2023-12-07T00:11:44;10.17;;;6.60;;
14001;SDS011;7076;51.280;12.584;2023-12-07T00:16:46;8.13;;;6.33;;
14001;SDS011;7076;51.280;12.584;2023-12-07T00:21:50;9.40;;;6.53;;
14001;SDS011;7076;51.280;12.584;2023-12-07T00:26:54;8.37;;;6.77;;
14001;SDS011;7076;51.280;12.584;2023-12-07T00:31:57;8.33;;;6.77;;
14001;SDS011;7076;51.280;12.584;2023-12-07T00:37:00;7.93;;;6.13;;
14001;SDS011;7076;51.280;12.584;2023-12-07T00:42:05;9.40;;;6.80;;
14001;SDS011;7076;51.280;12.584;2023-12-07T00:47:08;9.03;;;6.40;;
14001;SDS011;7076;51.280;12.584;2023-12-07T00:52:10;9.27;;;6.57;;
14001;SDS011;7076;51.280;12.584;2023-12-07T00:57:15;9.23;;;6.70;;
14001;SDS011;7076;51.280;12.584;2023-12-07T01:02:18;8.63;;;6.07;;
14001;SDS011;7076;51.280;12.584;2023-12-07T01:07:20;8.90;;;6.43;;
14001;SDS011;7076;51.280;12.584;2023-12-07T01:12:25;9.87;;;7.47;;
14001;SDS011;7076;51.280;12.584;2023-12-07T01:17:27;9.57;;;6.67;;
14001;SDS011;7076;51.280;12.584;2023-12-07T01:22:30;8.57;;;6.70;;
14001;SDS011;7076;51.280;12.584;2023-12-07T01:27:34;9.07;;;6.70;;
14001;SDS011;7076;51.280;12.584;2023-12-07T01:32:37;8.57;;;6.77;;
14001;SDS011;7076;51.280;12.584;2023-12-07T01:37:39;10.63;;;7.17;;
14001;SDS011;7076;51.280;12.584;2023-12-07T01:42:50;8.50;;;6.57;;
14001;SDS011;7076;51.280;12.584;2023-12-07T01:47:53;9.07;;;6.67;;
14001;SDS011;7076;51.280;12.584;2023-12-07T01:53:00;10.83;;;7.13;;
14001;SDS011;7076;51.280;12.584;2023-12-07T01:58:07;11.10;;;7.30;;
14001;SDS011;7076;51.280;12.584;2023-12-07T02:03:10;9.00;;;6.90;;
14001;SDS011;7076;51.280;12.584;2023-12-07T02:08:12;10.60;;;6.97;;
14001;SDS011;7076;51.280;12.584;2023-12-07T02:13:17;8.60;;;6.47;;
14001;SDS011;7076;51.280;12.584;2023-12-07T02:18:21;10.03;;;6.60;;
14001;SDS011;7076;51.280;12.584;2023-12-07T02:23:28;9.67;;;6.67;;
14001;SDS011;7076;51.280;12.584;2023-12-07T02:28:48;8.60;;;6.43;;
14001;SDS011;7076;51.280;12.584;2023-12-07T02:33:51;9.80;;;6.87;;
14001;SDS011;7076;51.280;12.584;2023-12-07T02:38:54;9.20;;;6.53;;
14001;SDS011;7076;51.280;12.584;2023-12-07T02:44:00;10.17;;;6.73;;
14001;SDS011;7076;51.280;12.584;2023-12-07T02:49:03;8.30;;;6.57;;
14001;SDS011;7076;51.280;12.584;2023-12-07T02:54:06;10.80;;;6.90;;
14001;SDS011;7076;51.280;12.584;2023-12-07T02:59:10;8.80;;;7.23;;
14001;SDS011;7076;51.280;12.584;2023-12-07T03:04:13;10.37;;;7.20;;
14001;SDS011;7076;51.280;12.584;2023-12-07T03:09:15;11.83;;;8.17;;
14001;SDS011;7076;51.280;12.584;2023-12-07T03:14:19;11.53;;;7.53;;
14001;SDS011;7076;51.280;12.584;2023-12-07T03:19:22;12.93;;;7.67;;
14001;SDS011;7076;51.280;12.584;2023-12-07T03:24:25;11.67;;;7.97;;
14001;SDS011;7076;51.280;12.584;2023-12-07T03:29:29;10.93;;;7.53;;
14001;SDS011;7076;51.280;12.584;2023-12-07T03:34:31;10.97;;;7.33;;
14001;SDS011;7076;51.280;12.584;2023-12-07T03:39:34;11.47;;;7.27;;
14001;SDS011;7076;51.280;12.584;2023-12-07T03:44:38;12.27;;;7.77;;
14001;SDS011;7076;51.280;12.584;2023-12-07T03:49:40;12.40;;;7.80;;
14001;SDS011;7076;51.280;12.584;2023-12-07T03:54:43;11.87;;;7.33;;
14001;SDS011;7076;51.280;12.584;2023-12-07T03:59:47;10.47;;;7.43;;
14001;SDS011;7076;51.280;12.584;2023-12-07T04:04:50;13.20;;;7.53;;
14001;SDS011;7076;51.280;12.584;2023-12-07T04:09:52;12.50;;;7.57;;
14001;SDS011;7076;51.280;12.584;2023-12-07T04:14:57;11.27;;;7.30;;
14001;SDS011;7076;51.280;12.584;2023-12-07T04:19:59;10.37;;;7.00;;
14001;SDS011;7076;51.280;12.584;2023-12-07T04:25:02;11.47;;;7.30;;
14001;SDS011;7076;51.280;12.584;2023-12-07T04:30:07;11.97;;;7.63;;
14001;SDS011;7076;51.280;12.584;2023-12-07T04:35:10;13.67;;;8.33;;
14001;SDS011;7076;51.280;12.584;2023-12-07T04:40:13;12.43;;;7.47;;
14001;SDS011;7076;51.280;12.584;2023-12-07T04:45:17;11.33;;;7.50;;
14001;SDS011;7076;51.280;12.584;2023-12-07T04:50:19;12.20;;;7.97;;
14001;SDS011;7076;51.280;12.584;2023-12-07T04:55:22;11.03;;;7.07;;
14001;SDS011;7076;51.280;12.584;2023-12-07T05:00:26;11.83;;;7.77;;
14001;SDS011;7076;51.280;12.584;2023-12-07T05:05:29;11.80;;;7.67;;
14001;SDS011;7076;51.280;12.584;2023-12-07T05:10:32;11.87;;;7.70;;
14001;SDS011;7076;51.280;12.584;2023-12-07T05:15:36;11.87;;;7.37;;
14001;SDS011;7076;51.280;12.584;2023-12-07T05:20:39;10.17;;;7.10;;
14001;SDS011;7076;51.280;12.584;2023-12-07T05:25:41;10.03;;;7.00;;
14001;SDS011;7076;51.280;12.584;2023-12-07T05:30:46;10.80;;;7.47;;
14001;SDS011;7076;51.280;12.584;2023-12-07T05:35:49;11.30;;;7.07;;
14001;SDS011;7076;51.280;12.584;2023-12-07T05:40:52;12.17;;;6.93;;
14001;SDS011;7076;51.280;12.584;2023-12-07T05:45:56;12.40;;;7.97;;
14001;SDS011;7076;51.280;12.584;2023-12-07T05:50:58;12.07;;;8.17;;
14001;SDS011;7076;51.280;12.584;2023-12-07T05:56:01;12.03;;;7.80;;
14001;SDS011;7076;51.280;12.584;2023-12-07T06:01:06;9.83;;;7.00;;
14001;SDS011;7076;51.280;12.584;2023-12-07T06:06:10;10.90;;;7.00;;
14001;SDS011;7076;51.280;12.584;2023-12-07T06:11:12;10.13;;;6.40;;
14001;SDS011;7076;51.280;12.584;2023-12-07T06:16:16;11.23;;;7.67;;
14001;SDS011;7076;51.280;12.584;2023-12-07T06:21:20;11.07;;;7.63;;
14001;SDS011;7076;51.280;12.584;2023-12-07T06:26:22;11.23;;;7.33;;
14001;SDS011;7076;51.280;12.584;2023-12-07T06:31:27;12.87;;;7.87;;
14001;SDS011;7076;51.280;12.584;2023-12-07T06:36:29;11.90;;;8.20;;
14001;SDS011;7076;51.280;12.584;2023-12-07T06:41:32;13.27;;;7.70;;
14001;SDS011;7076;51.280;12.584;2023-12-07T06:46:37;12.43;;;8.23;;
14001;SDS011;7076;51.280;12.584;2023-12-07T06:51:40;11.23;;;8.23;;
14001;SDS011;7076;51.280;12.584;2023-12-07T06:56:43;13.37;;;8.43;;
14001;SDS011;7076;51.280;12.584;2023-12-07T07:01:48;14.80;;;9.10;;
14001;SDS011;7076;51.280;12.584;2023-12-07T07:06:51;13.03;;;7.27;;
14001;SDS011;7076;51.280;12.584;2023-12-07T07:11:53;13.93;;;8.73;;
14001;SDS011;7076;51.280;12.584;2023-12-07T07:16:58;12.07;;;7.90;;
14001;SDS011;7076;51.280;12.584;2023-12-07T07:22:00;13.03;;;8.57;;
14001;SDS011;7076;51.280;12.584;2023-12-07T07:27:03;13.77;;;8.27;;
14001;SDS011;7076;51.280;12.584;2023-12-07T07:32:07;12.73;;;8.00;;
14001;SDS011;7076;51.280;12.584;2023-12-07T07:37:10;12.10;;;7.63;;
14001;SDS011;7076;51.280;12.584;2023-12-07T07:42:13;14.63;;;8.43;;
14001;SDS011;7076;51.280;12.584;2023-12-07T07:47:17;12.87;;;8.37;;
14001;SDS011;7076;51.280;12.584;2023-12-07T07:52:20;13.27;;;8.50;;
14001;SDS011;7076;51.280;12.584;2023-12-07T07:57:23;12.53;;;8.40;;
14001;SDS011;7076;51.280;12.584;2023-12-07T08:02:27;13.97;;;8.80;;
14001;SDS011;7076;51.280;12.584;2023-12-07T08:07:30;15.63;;;9.73;;
14001;SDS011;7076;51.280;12.584;2023-12-07T08:12:33;11.73;;;8.47;;
14001;SDS011;7076;51.280;12.584;2023-12-07T08:17:38;13.60;;;8.57;;
14001;SDS011;7076;51.280;12.584;2023-12-07T08:22:42;13.53;;;8.67;;
14001;SDS011;7076;51.280;12.584;2023-12-07T08:27:44;11.60;;;8.00;;
14001;SDS011;7076;51.280;12.584;2023-12-07T08:32:49;11.70;;;7.97;;
14001;SDS011;7076;51.280;12.584;2023-12-07T08:37:51;11.43;;;7.73;;
14001;SDS011;7076;51.280;12.584;2023-12-07T08:42:54;12.20;;;7.70;;
14001;SDS011;7076;51.280;12.584;2023-12-07T08:47:59;10.17;;;7.70;;
14001;SDS011;7076;51.280;12.584;2023-12-07T08:53:01;11.27;;;8.27;;
14001;SDS011;7076;51.280;12.584;2023-12-07T08:58:06;10.80;;;8.13;;
14001;SDS011;7076;51.280;12.584;2023-12-07T09:03:10;12.97;;;9.27;;
14001;SDS011;7076;51.280;12.584;2023-12-07T09:08:12;9.67;;;6.90;;
14001;SDS011;7076;51.280;12.584;2023-12-07T09:13:15;11.30;;;7.57;;
14001;SDS011;7076;51.280;12.584;2023-12-07T09:18:19;11.47;;;8.20;;
14001;SDS011;7076;51.280;12.584;2023-12-07T09:23:22;13.53;;;8.33;;
14001;SDS011;7076;51.280;12.584;2023-12-07T09:28:24;14.27;;;8.57;;
14001;SDS011;7076;51.280;12.584;2023-12-07T09:33:29;14.80;;;8.60;;
14001;SDS011;7076;51.280;12.584;2023-12-07T09:38:31;12.60;;;8.30;;
14001;SDS011;7076;51.280;12.584;2023-12-07T09:43:34;15.03;;;8.33;;
14001;SDS011;7076;51.280;12.584;2023-12-07T09:48:38;13.70;;;8.73;;
14001;SDS011;7076;51.280;12.584;2023-12-07T09:53:44;11.77;;;8.37;;
14001;SDS011;7076;51.280;12.584;2023-12-07T09:58:47;11.47;;;8.63;;
14001;SDS011;7076;51.280;12.584;2023-12-07T10:03:52;10.87;;;7.07;;
14001;SDS011;7076;51.280;12.584;2023-12-07T10:09:14;15.53;;;9.23;;
14001;SDS011;7076;51.280;12.584;2023-12-07T10:14:24;11.97;;;8.53;;
14001;SDS011;7076;51.280;12.584;2023-12-07T10:19:28;13.03;;;8.13;;
14001;SDS011;7076;51.280;12.584;2023-12-07T10:24:33;12.93;;;8.27;;
14001;SDS011;7076;51.280;12.584;2023-12-07T10:29:36;13.53;;;8.77;;
14001;SDS011;7076;51.280;12.584;2023-12-07T10:34:41;13.63;;;9.67;;
14001;SDS011;7076;51.280;12.584;2023-12-07T10:39:44;11.17;;;8.13;;
14001;SDS011;7076;51.280;12.584;2023-12-07T10:44:46;14.40;;;8.73;;
14001;SDS011;7076;51.280;12.584;2023-12-07T10:49:54;10.40;;;7.53;;
14001;SDS011;7076;51.280;12.584;2023-12-07T10:55:02;14.00;;;9.23;;
14001;SDS011;7076;51.280;12.584;2023-12-07T11:00:06;12.17;;;8.40;;
14001;SDS011;7076;51.280;12.584;2023-12-07T11:05:10;14.57;;;7.47;;
14001;SDS011;7076;51.280;12.584;2023-12-07T11:10:15;11.83;;;8.27;;
14001;SDS011;7076;51.280;12.584;2023-12-07T11:15:20;12.87;;;8.07;;
14001;SDS011;7076;51.280;12.584;2023-12-07T11:20:32;11.93;;;8.30;;
14001;SDS011;7076;51.280;12.584;2023-12-07T11:25:42;14.43;;;8.30;;
14001;SDS011;7076;51.280;12.584;2023-12-07T11:30:45;15.67;;;8.40;;
14001;SDS011;7076;51.280;12.584;2023-12-07T11:36:05;12.33;;;8.03;;
14001;SDS011;7076;51.280;12.584;2023-12-07T11:41:09;18.37;;;9.40;;
14001;SDS011;7076;51.280;12.584;2023-12-07T11:46:12;12.13;;;8.17;;
14001;SDS011;7076;51.280;12.584;2023-12-07T11:51:17;11.00;;;8.27;;
14001;SDS011;7076;51.280;12.584;2023-12-07T11:56:19;15.00;;;8.47;;
14001;SDS011;7076;51.280;12.584;2023-12-07T12:01:24;13.60;;;8.77;;
14001;SDS011;7076;51.280;12.584;2023-12-07T12:06:30;11.70;;;8.13;;
14001;SDS011;7076;51.280;12.584;2023-12-07T12:11:33;11.57;;;8.33;;
14001;SDS011;7076;51.280;12.584;2023-12-07T12:16:36;11.83;;;9.03;;
14001;SDS011;7076;51.280;12.584;2023-12-07T12:21:41;11.43;;;8.53;;
14001;SDS011;7076;51.280;12.584;2023-12-07T12:26:44;11.50;;;8.20;;
14001;SDS011;7076;51.280;12.584;2023-12-07T12:31:48;10.73;;;8.30;;
14001;SDS011;7076;51.280;12.584;2023-12-07T12:36:56;14.33;;;8.60;;
14001;SDS011;7076;51.280;12.584;2023-12-07T12:41:59;11.93;;;8.10;;
14001;SDS011;7076;51.280;12.584;2023-12-07T12:47:02;11.23;;;7.93;;
14001;SDS011;7076;51.280;12.584;2023-12-07T12:52:06;12.33;;;8.33;;
14001;SDS011;7076;51.280;12.584;2023-12-07T12:57:11;12.13;;;8.57;;
14001;SDS011;7076;51.280;12.584;2023-12-07T13:02:15;10.43;;;7.67;;
14001;SDS011;7076;51.280;12.584;2023-12-07T13:07:21;10.83;;;7.73;;
14001;SDS011;7076;51.280;12.584;2023-12-07T13:12:26;12.27;;;8.30;;
14001;SDS011;7076;51.280;12.584;2023-12-07T13:17:29;14.20;;;8.67;;
14001;SDS011;7076;51.280;12.584;2023-12-07T13:22:33;11.20;;;8.43;;
14001;SDS011;7076;51.280;12.584;2023-12-07T13:27:36;11.90;;;8.30;;
14001;SDS011;7076;51.280;12.584;2023-12-07T13:32:38;10.43;;;7.60;;
14001;SDS011;7076;51.280;12.584;2023-12-07T13:37:43;11.27;;;8.17;;
14001;SDS011;7076;51.280;12.584;2023-12-07T13:42:45;10.03;;;7.33;;
14001;SDS011;7076;51.280;12.584;2023-12-07T13:47:48;11.30;;;7.67;;
14001;SDS011;7076;51.280;12.584;2023-12-07T13:52:52;10.80;;;7.40;;
14001;SDS011;7076;51.280;12.584;2023-12-07T13:57:55;9.17;;;7.17;;
14001;SDS011;7076;51.280;12.584;2023-12-07T14:02:59;10.47;;;7.77;;
14001;SDS011;7076;51.280;12.584;2023-12-07T14:08:03;11.73;;;7.77;;
14001;SDS011;7076;51.280;12.584;2023-12-07T14:13:06;12.90;;;8.47;;
14001;SDS011;7076;51.280;12.584;2023-12-07T14:18:09;10.13;;;7.83;;
14001;SDS011;7076;51.280;12.584;2023-12-07T14:23:14;11.03;;;7.40;;
14001;SDS011;7076;51.280;12.584;2023-12-07T14:28:17;12.97;;;8.27;;
14001;SDS011;7076;51.280;12.584;2023-12-07T14:33:20;8.57;;;6.50;;
14001;SDS011;7076;51.280;12.584;2023-12-07T14:38:24;11.17;;;7.47;;
14001;SDS011;7076;51.280;12.584;2023-12-07T14:43:27;11.20;;;7.10;;
14001;SDS011;7076;51.280;12.584;2023-12-07T14:48:30;21.77;;;12.43;;
14001;SDS011;7076;51.280;12.584;2023-12-07T14:53:34;16.93;;;9.47;;
14001;SDS011;7076;51.280;12.584;2023-12-07T14:58:37;12.17;;;8.17;;
14001;SDS011;7076;51.280;12.584;2023-12-07T15:03:44;10.83;;;7.33;;
14001;SDS011;7076;51.280;12.584;2023-12-07T15:08:48;10.27;;;7.27;;
14001;SDS011;7076;51.280;12.584;2023-12-07T15:13:51;10.03;;;6.47;;
14001;SDS011;7076;51.280;12.584;2023-12-07T15:18:54;10.63;;;7.73;;
14001;SDS011;7076;51.280;12.584;2023-12-07T15:23:59;9.50;;;6.67;;
14001;SDS011;7076;51.280;12.584;2023-12-07T15:29:02;9.07;;;6.47;;
14001;SDS011;7076;51.280;12.584;2023-12-07T15:34:05;9.53;;;7.27;;
14001;SDS011;7076;51.280;12.584;2023-12-07T15:39:23;9.93;;;6.23;;
14001;SDS011;7076;51.280;12.584;2023-12-07T15:44:26;11.07;;;6.87;;
14001;SDS011;7076;51.280;12.584;2023-12-07T15:49:31;9.90;;;6.07;;
14001;SDS011;7076;51.280;12.584;2023-12-07T15:54:35;8.37;;;6.40;;
14001;SDS011;7076;51.280;12.584;2023-12-07T15:59:41;10.37;;;7.30;;
14001;SDS011;7076;51.280;12.584;2023-12-07T16:04:45;10.23;;;7.23;;
14001;SDS011;7076;51.280;12.584;2023-12-07T16:09:50;13.40;;;7.90;;
14001;SDS011;7076;51.280;12.584;2023-12-07T16:14:55;13.73;;;9.73;;
14001;SDS011;7076;51.280;12.584;2023-12-07T16:19:58;12.90;;;8.43;;
14001;SDS011;7076;51.280;12.584;2023-12-07T16:25:02;12.20;;;8.80;;
14001;SDS011;7076;51.280;12.584;2023-12-07T16:30:06;13.70;;;9.33;;
14001;SDS011;7076;51.280;12.584;2023-12-07T16:35:10;12.40;;;9.50;;
14001;SDS011;7076;51.280;12.584;2023-12-07T16:40:15;11.80;;;8.60;;
14001;SDS011;7076;51.280;12.584;2023-12-07T16:45:17;12.47;;;9.03;;
14001;SDS011;7076;51.280;12.584;2023-12-07T16:50:21;13.57;;;8.47;;
14001;SDS011;7076;51.280;12.584;2023-12-07T16:55:25;13.80;;;8.90;;
14001;SDS011;7076;51.280;12.584;2023-12-07T17:00:30;14.37;;;11.80;;
14001;SDS011;7076;51.280;12.584;2023-12-07T17:05:33;12.73;;;10.70;;
14001;SDS011;7076;51.280;12.584;2023-12-07T17:10:37;12.70;;;8.13;;
14001;SDS011;7076;51.280;12.584;2023-12-07T17:15:40;10.90;;;7.60;;
14001;SDS011;7076;51.280;12.584;2023-12-07T17:20:43;8.57;;;6.87;;
14001;SDS011;7076;51.280;12.584;2023-12-07T17:25:47;10.00;;;7.43;;
14001;SDS011;7076;51.280;12.584;2023-12-07T17:30:50;11.57;;;6.63;;
14001;SDS011;7076;51.280;12.584;2023-12-07T17:35:53;9.17;;;7.33;;
14001;SDS011;7076;51.280;12.584;2023-12-07T17:40:57;10.80;;;7.57;;
14001;SDS011;7076;51.280;12.584;2023-12-07T17:46:00;13.67;;;7.00;;
14001;SDS011;7076;51.280;12.584;2023-12-07T17:51:03;9.40;;;6.70;;
14001;SDS011;7076;51.280;12.584;2023-12-07T17:56:07;11.30;;;8.30;;
14001;SDS011;7076;51.280;12.584;2023-12-07T18:01:16;14.67;;;9.13;;
14001;SDS011;7076;51.280;12.584;2023-12-07T18:06:19;14.53;;;9.13;;
14001;SDS011;7076;51.280;12.584;2023-12-07T18:11:23;15.20;;;10.27;;
14001;SDS011;7076;51.280;12.584;2023-12-07T18:16:26;13.23;;;9.00;;
14001;SDS011;7076;51.280;12.584;2023-12-07T18:21:29;17.93;;;11.60;;
14001;SDS011;7076;51.280;12.584;2023-12-07T18:26:33;14.50;;;9.30;;
14001;SDS011;7076;51.280;12.584;2023-12-07T18:31:37;12.47;;;8.57;;
14001;SDS011;7076;51.280;12.584;2023-12-07T18:36:40;11.07;;;8.30;;
14001;SDS011;7076;51.280;12.584;2023-12-07T18:41:44;14.53;;;9.77;;
14001;SDS011;7076;51.280;12.584;2023-12-07T18:46:47;14.33;;;9.50;;
14001;SDS011;7076;51.280;12.584;2023-12-07T18:51:50;12.13;;;8.77;;
14001;SDS011;7076;51.280;12.584;2023-12-07T18:56:54;13.73;;;8.77;;
14001;SDS011;7076;51.280;12.584;2023-12-07T19:01:57;18.57;;;9.07;;
14001;SDS011;7076;51.280;12.584;2023-12-07T19:07:00;17.87;;;10.50;;
14001;SDS011;7076;51.280;12.584;2023-12-07T19:12:05;15.03;;;9.47;;
14001;SDS011;7076;51.280;12.584;2023-12-07T19:17:07;16.53;;;10.33;;
14001;SDS011;7076;51.280;12.584;2023-12-07T19:22:10;18.97;;;10.37;;
14001;SDS011;7076;51.280;12.584;2023-12-07T19:27:14;19.47;;;10.77;;
14001;SDS011;7076;51.280;12.584;2023-12-07T19:32:17;21.20;;;13.43;;
14001;SDS011;7076;51.280;12.584;2023-12-07T19:37:20;27.50;;;12.90;;
14001;SDS011;7076;51.280;12.584;2023-12-07T19:42:24;18.67;;;9.77;;
14001;SDS011;7076;51.280;12.584;2023-12-07T19:47:27;20.93;;;10.63;;
14001;SDS011;7076;51.280;12.584;2023-12-07T19:52:30;17.83;;;9.73;;
14001;SDS011;7076;51.280;12.584;2023-12-07T19:57:34;17.93;;;9.33;;
14001;SDS011;7076;51.280;12.584;2023-12-07T20:02:43;18.53;;;9.20;;
14001;SDS011;7076;51.280;12.584;2023-12-07T20:07:45;14.63;;;9.43;;
14001;SDS011;7076;51.280;12.584;2023-12-07T20:12:53;12.27;;;8.70;;
14001;SDS011;7076;51.280;12.584;2023-12-07T20:17:56;11.63;;;7.13;;
14001;SDS011;7076;51.280;12.584;2023-12-07T20:22:59;12.17;;;7.87;;
14001;SDS011;7076;51.280;12.584;2023-12-07T20:28:03;16.20;;;8.07;;
14001;SDS011;7076;51.280;12.584;2023-12-07T20:33:05;11.67;;;7.63;;
14001;SDS011;7076;51.280;12.584;2023-12-07T20:38:10;14.77;;;8.90;;
14001;SDS011;7076;51.280;12.584;2023-12-07T20:43:14;13.40;;;8.67;;
14001;SDS011;7076;51.280;12.584;2023-12-07T20:48:17;16.63;;;8.03;;
14001;SDS011;7076;51.280;12.584;2023-12-07T20:53:20;16.40;;;9.73;;
14001;SDS011;7076;51.280;12.584;2023-12-07T20:58:24;13.53;;;8.87;;
14001;SDS011;7076;51.280;12.584;2023-12-07T21:03:33;11.80;;;8.10;;
14001;SDS011;7076;51.280;12.584;2023-12-07T21:08:37;13.77;;;8.03;;
14001;SDS011;7076;51.280;12.584;2023-12-07T21:13:41;13.13;;;8.27;;
14001;SDS011;7076;51.280;12.584;2023-12-07T21:18:43;15.00;;;8.53;;
14001;SDS011;7076;51.280;12.584;2023-12-07T21:23:46;13.40;;;8.57;;
14001;SDS011;7076;51.280;12.584;2023-12-07T21:28:50;14.37;;;8.80;;
14001;SDS011;7076;51.280;12.584;2023-12-07T21:33:53;15.43;;;8.90;;
14001;SDS011;7076;51.280;12.584;2023-12-07T21:38:56;13.40;;;8.60;;
14001;SDS011;7076;51.280;12.584;2023-12-07T21:44:00;16.03;;;9.10;;
14001;SDS011;7076;51.280;12.584;2023-12-07T21:49:02;13.77;;;8.47;;
14001;SDS011;7076;51.280;12.584;2023-12-07T21:54:05;15.70;;;9.37;;
14001;SDS011;7076;51.280;12.584;2023-12-07T21:59:09;16.10;;;9.87;;
14001;SDS011;7076;51.280;12.584;2023-12-07T22:04:12;19.63;;;10.73;;
14001;SDS011;7076;51.280;12.584;2023-12-07T22:09:15;15.40;;;10.03;;
14001;SDS011;7076;51.280;12.584;2023-12-07T22:14:21;16.63;;;9.17;;
14001;SDS011;7076;51.280;12.584;2023-12-07T22:19:23;15.23;;;8.80;;
14001;SDS011;7076;51.280;12.584;2023-12-07T22:24:26;14.37;;;8.47;;
14001;SDS011;7076;51.280;12.584;2023-12-07T22:29:30;12.73;;;8.10;;
14001;SDS011;7076;51.280;12.584;2023-12-07T22:34:33;12.73;;;7.93;;
14001;SDS011;7076;51.280;12.584;2023-12-07T22:39:36;13.03;;;7.93;;
14001;SDS011;7076;51.280;12.584;2023-12-07T22:44:40;12.07;;;7.33;;
14001;SDS011;7076;51.280;12.584;2023-12-07T22:49:42;13.90;;;7.63;;
14001;SDS011;7076;51.280;12.584;2023-12-07T22:54:45;12.30;;;7.47;;
14001;SDS011;7076;51.280;12.584;2023-12-07T22:59:49;13.70;;;7.80;;
14001;SDS011;7076;51.280;12.584;2023-12-07T23:04:52;12.23;;;6.87;;
14001;SDS011;7076;51.280;12.584;2023-12-07T23:09:54;15.93;;;8.43;;
14001;SDS011;7076;51.280;12.584;2023-12-07T23:14:58;10.70;;;7.10;;
14001;SDS011;7076;51.280;12.584;2023-12-07T23:20:01;11.60;;;7.73;;
14001;SDS011;7076;51.280;12.584;2023-12-07T23:25:04;13.77;;;7.70;;
14001;SDS011;7076;51.280;12.584;2023-12-07T23:30:09;16.97;;;7.60;;
14001;SDS011;7076;51.280;12.584;2023-12-07T23:35:12;11.93;;;7.20;;
14001;SDS011;7076;51.280;12.584;2023-12-07T23:40:15;11.77;;;7.13;;
14001;SDS011;7076;51.280;12.584;2023-12-07T23:45:18;11.07;;;7.10;;
14001;SDS011;7076;51.280;12.584;2023-12-07T23:50:21;11.87;;;7.27;;
14001;SDS011;7076;51.280;12.584;2023-12-07T23:55:24;10.27;;;6.67;;
